Allen's Hourly Summary for Sunday, May 13, 2018
Hour Temp
(f)
RH
(%)
Solar Rad.
(MJ/m2)
Rainfall
(in)
Wind
(mph)
5/13/2018 12:00 AM 75 63 0 0 2.11
5/13/2018 1:00 AM 74 68 0 0 2.34
5/13/2018 2:00 AM 73 73 0 0 2.85
5/13/2018 3:00 AM 72 77 0 0 3.07
5/13/2018 4:00 AM 71 81 0 0 2.15
5/13/2018 5:00 AM 71 82 0 0 2.25
5/13/2018 6:00 AM 70 85 0 0 2.03
5/13/2018 7:00 AM 70 87 0.03 0 1.28
5/13/2018 8:00 AM 70 81 0.32 0 1.64
5/13/2018 9:00 AM 73 76 0.89 0 2.71
5/13/2018 10:00 AM 75 68 1.24 0 3.22
5/13/2018 11:00 AM 78 62 2.09 0 4.02
5/13/2018 12:00 PM 80 55 2.55 0 3.63
5/13/2018 1:00 PM 81 55 2.31 0 5.04
5/13/2018 2:00 PM 82 51 2.64 0 4.79
5/13/2018 3:00 PM 84 49 2.97 0 5.25
5/13/2018 4:00 PM 84 47 2.51 0 6.02
5/13/2018 5:00 PM 85 44 1.84 0 5.79
5/13/2018 6:00 PM 85 45 1.41 0 5.49
5/13/2018 7:00 PM 84 46 0.75 0 4.76
5/13/2018 8:00 PM 82 50 0.12 0 4.33
5/13/2018 9:00 PM 80 54 0 0 3.15
5/13/2018 10:00 PM 79 59 0 0 3.13
5/13/2018 11:00 PM 78 61 0 0 2.89
Data Summary 77 63 21.67 0.00 3.50